KHVN

Tweed-New Haven Airport

New Haven, Connecticut, USA
METAR KHVN 221353Z 31006KT 10SM OVC120 07/01 A3024 RMK AO2 SLP238 T00670006
Observed Flight Rules
Oct-22 @ 13:53 UTC (28 minutes ago) Visual Flight Rules
Wind Visibility Clouds
310° at 6 knots 10 miles
  • Overcast at 12,000' AGL
Temperatures Readings
Current 7°C / 45°F
Dewpoint 1°C / 34°F
Humidity 66%
Altimeter 30.24" Hg
Pressure 1023.8 hPa
Elevation 4
METAR KHVN 221353Z 31006KT 10SM OVC120 07/01 A3024 RMK AO2 SLP238 T00670006
Observed Flight Rules
Oct-22 @ 13:53 UTC
(28 minutes ago)
VFR
Wind Visibility
310° at 6 knots 10 miles
Clouds
  • Overcast at 12,000' AGL
Temperature Dewpoint
7°C / 45°F 1°C / 34°F
Humidity Altimeter Pressure
66% 30.24" Hg 1023.8 hPa